Time;durP1;ratioP1;P1;durP2;ratioP2;P2;SDS_P1;SDS_P2;PMS_P1;PMS_P2;Temp;Humidity;BMP_temperature;BMP_pressure;BME280_temperature;BME280_humidity;BME280_pressure;Samples;Min_cycle;Max_cycle;Signal;HPM_P1;HPM_P2
2022/08/25 00:57:24;;;;;;;2.37;1.83;;;18.70;98.00;;;;;;6247704;23;20461;-89
2022/08/25 00:59:51;;;;;;;2.20;1.73;;;18.80;98.00;;;;;;6263395;23;20413;-89
2022/08/25 01:02:18;;;;;;;3.30;2.10;;;18.80;98.00;;;;;;6255974;23;20765;-89
2022/08/25 01:04:47;;;;;;;3.53;2.00;;;18.70;98.00;;;;;;6244450;23;20412;-89
2022/08/25 01:07:16;;;;;;;2.80;2.00;;;18.60;98.00;;;;;;6244788;23;20453;-88
2022/08/25 01:09:45;;;;;;;2.80;2.30;;;18.50;98.00;;;;;;6244601;23;20422;-88
2022/08/25 01:12:13;;;;;;;2.90;1.87;;;18.50;98.00;;;;;;6256368;23;20918;-89
2022/08/25 01:14:43;;;;;;;2.80;1.80;;;18.40;98.00;;;;;;6245262;23;20432;-88
2022/08/25 01:17:10;;;;;;;2.90;2.40;;;18.50;98.00;;;;;;6244699;23;20933;-88
2022/08/25 01:19:37;;;;;;;2.93;2.13;;;18.50;98.00;;;;;;6245043;23;20422;-89
2022/08/25 01:22:06;;;;;;;4.13;2.33;;;18.40;98.00;;;;;;6254929;23;20414;-88
2022/08/25 01:24:39;;;;;;;4.07;2.20;;;18.40;98.00;;;;;;6244601;23;20429;-88
2022/08/25 01:27:07;;;;;;;4.40;2.40;;;18.30;98.00;;;;;;6245084;23;20452;-88
2022/08/25 01:29:34;;;;;;;4.30;2.27;;;18.30;98.00;;;;;;6255517;23;20410;-88
2022/08/25 01:32:04;;;;;;;2.67;2.13;;;18.20;98.00;;;;;;6254956;23;20409;-89
2022/08/25 01:34:35;;;;;;;2.10;1.90;;;18.20;98.00;;;;;;6255280;22;20630;-89
2022/08/25 01:37:03;;;;;;;2.70;2.07;;;18.20;98.00;;;;;;6254560;23;20448;-89
2022/08/25 01:39:35;;;;;;;2.37;1.77;;;18.20;98.00;;;;;;6244836;23;20436;-88
2022/08/25 01:42:24;;;;;;;2.90;1.97;;;18.20;98.00;;;;;;6254908;22;20471;-88
2022/08/25 01:44:52;;;;;;;3.70;2.10;;;18.30;98.00;;;;;;6244605;23;20409;-89
2022/08/25 01:47:19;;;;;;;3.10;1.67;;;18.40;98.00;;;;;;6244848;23;20500;-88
2022/08/25 01:49:46;;;;;;;2.50;2.17;;;18.50;98.00;;;;;;6245338;23;20513;-90
2022/08/25 01:52:19;;;;;;;2.30;1.90;;;18.40;98.00;;;;;;6257356;23;20435;-90
2022/08/25 01:54:47;;;;;;;4.73;2.30;;;18.30;98.00;;;;;;6257140;23;20448;-90
2022/08/25 01:57:15;;;;;;;4.20;2.23;;;18.20;98.00;;;;;;6257214;23;20472;-90
2022/08/25 01:59:42;;;;;;;3.67;2.33;;;18.20;98.00;;;;;;6257345;23;20432;-89
2022/08/25 02:02:09;;;;;;;3.30;2.30;;;18.20;98.00;;;;;;6257306;23;20905;-90
2022/08/25 02:04:36;;;;;;;3.13;2.20;;;18.20;98.00;;;;;;6257200;23;20422;-91
2022/08/25 02:07:06;;;;;;;3.23;2.07;;;18.00;98.00;;;;;;6257529;23;20449;-89
2022/08/25 02:09:34;;;;;;;3.27;2.20;;;17.90;98.00;;;;;;6257235;23;20432;-89
2022/08/25 02:12:03;;;;;;;12.90;1.80;;;18.10;98.00;;;;;;6257162;22;20421;-90
2022/08/25 02:14:30;;;;;;;3.70;2.27;;;18.10;98.00;;;;;;6257320;23;20414;-90
2022/08/25 02:16:57;;;;;;;4.10;2.20;;;18.00;98.00;;;;;;6257385;23;20459;-90
2022/08/25 02:19:26;;;;;;;3.70;2.10;;;17.80;98.00;;;;;;6258049;23;20429;-89
2022/08/25 02:21:54;;;;;;;2.67;2.10;;;17.80;98.00;;;;;;6247248;23;20432;-90
2022/08/25 02:24:21;;;;;;;2.77;1.80;;;17.70;98.00;;;;;;6257661;23;20817;-90
2022/08/25 02:26:49;;;;;;;2.17;1.90;;;17.80;98.00;;;;;;6248525;23;20491;-90
2022/08/25 02:29:18;;;;;;;3.73;2.23;;;17.70;98.00;;;;;;6271853;23;20402;-90
2022/08/25 02:31:45;;;;;;;4.10;2.70;;;17.80;98.00;;;;;;6283487;22;20405;-91
2022/08/25 02:34:14;;;;;;;2.57;1.80;;;17.90;98.00;;;;;;6276948;22;20939;-90
2022/08/25 02:36:42;;;;;;;3.07;2.20;;;17.90;98.00;;;;;;6257079;23;20947;-90
2022/08/25 02:39:10;;;;;;;4.03;2.53;;;17.80;98.00;;;;;;6256966;23;20801;-90
2022/08/25 02:41:37;;;;;;;2.43;1.80;;;17.80;98.00;;;;;;6257053;23;20758;-90
2022/08/25 02:44:08;;;;;;;4.60;2.27;;;17.80;98.00;;;;;;6256635;23;20413;-90
2022/08/25 02:46:38;;;;;;;2.23;2.03;;;17.90;98.00;;;;;;6256589;23;20439;-90
2022/08/25 02:49:05;;;;;;;2.57;2.07;;;17.90;98.00;;;;;;6256754;23;20504;-90
2022/08/25 02:51:33;;;;;;;4.23;2.30;;;17.90;98.00;;;;;;6256505;23;20428;-90
2022/08/25 02:54:02;;;;;;;2.93;2.30;;;17.90;98.00;;;;;;6246393;23;20418;-92
2022/08/25 02:56:31;;;;;;;3.50;2.30;;;17.80;98.00;;;;;;6256693;23;20449;-92
2022/08/25 02:58:58;;;;;;;4.63;2.50;;;17.80;98.00;;;;;;6246546;23;20425;-92
2022/08/25 03:01:25;;;;;;;10.00;4.20;;;17.70;98.00;;;;;;6256727;23;20414;-92
2022/08/25 03:03:54;;;;;;;6.10;3.10;;;17.80;98.00;;;;;;6256743;23;20443;-92
2022/08/25 03:06:23;;;;;;;3.83;2.30;;;17.80;98.00;;;;;;6256151;23;20449;-92
2022/08/25 03:08:51;;;;;;;7.10;3.30;;;17.80;98.00;;;;;;6256704;23;20442;-92
2022/08/25 03:11:19;;;;;;;2.70;2.10;;;17.80;98.00;;;;;;6256656;23;20426;-92
2022/08/25 03:13:47;;;;;;;3.60;2.43;;;17.70;98.00;;;;;;6256282;23;20823;-91
2022/08/25 03:16:14;;;;;;;5.63;2.40;;;17.70;98.00;;;;;;6246534;22;20741;-92
2022/08/25 03:18:42;;;;;;;2.30;1.90;;;17.50;98.00;;;;;;6256310;23;20452;-92
2022/08/25 03:21:12;;;;;;;2.90;1.90;;;17.50;98.00;;;;;;6256050;23;20428;-92
2022/08/25 03:23:40;;;;;;;2.40;2.00;;;17.60;98.00;;;;;;6256947;23;20422;-92
2022/08/25 03:28:54;;;;;;;3.37;2.33;;;17.40;98.00;;;;;;6256545;23;20525;-92
2022/08/25 03:31:21;;;;;;;3.70;2.10;;;17.40;98.00;;;;;;6257576;23;20420;-92
2022/08/25 03:33:49;;;;;;;3.50;2.40;;;17.30;98.00;;;;;;6256551;23;20414;-92
2022/08/25 03:36:17;;;;;;;4.20;2.33;;;17.20;98.00;;;;;;6256342;23;20433;-91
2022/08/25 03:38:44;;;;;;;4.07;2.30;;;17.10;98.00;;;;;;6256422;23;20418;-92
2022/08/25 03:41:14;;;;;;;3.03;2.33;;;17.10;98.00;;;;;;6256534;23;20489;-92
2022/08/25 03:43:42;;;;;;;3.83;2.60;;;17.10;98.00;;;;;;6256542;23;20422;-92
2022/08/25 03:46:15;;;;;;;1.80;1.80;;;17.20;98.00;;;;;;6256013;23;20746;-92
2022/08/25 03:48:43;;;;;;;3.33;2.20;;;17.30;98.00;;;;;;6256061;23;20469;-92
2022/08/25 03:51:10;;;;;;;4.10;2.27;;;17.40;98.00;;;;;;6255851;23;20735;-93
2022/08/25 03:53:38;;;;;;;3.47;2.40;;;17.50;98.00;;;;;;6245997;23;20428;-92
2022/08/25 03:56:06;;;;;;;3.73;2.43;;;17.50;98.00;;;;;;6255864;23;20472;-92
2022/08/25 03:58:33;;;;;;;2.93;1.93;;;17.60;98.00;;;;;;6256398;23;20418;-91
2022/08/25 04:01:00;;;;;;;5.07;2.50;;;17.40;98.00;;;;;;6255980;23;20421;-92
2022/08/25 04:03:27;;;;;;;3.00;2.20;;;17.40;98.00;;;;;;6255966;22;20422;-92
2022/08/25 04:05:54;;;;;;;3.93;2.80;;;17.40;98.00;;;;;;6255556;23;20441;-92
2022/08/25 04:08:22;;;;;;;4.20;2.47;;;17.40;98.00;;;;;;6256278;23;20449;-92
2022/08/25 04:10:50;;;;;;;3.97;2.30;;;17.30;98.00;;;;;;6255848;23;20417;-92
2022/08/25 04:13:18;;;;;;;3.70;2.37;;;17.40;98.00;;;;;;6255624;22;20421;-92
2022/08/25 04:15:45;;;;;;;3.70;2.33;;;17.50;98.00;;;;;;6255449;23;20441;-92
2022/08/25 04:18:12;;;;;;;3.93;2.30;;;17.50;98.00;;;;;;6255770;23;20417;-92
2022/08/25 04:20:40;;;;;;;2.97;2.00;;;17.50;98.00;;;;;;6255933;23;20425;-92
2022/08/25 04:23:07;;;;;;;2.70;1.90;;;17.30;98.00;;;;;;6256032;23;20751;-92
2022/08/25 04:25:35;;;;;;;2.47;1.93;;;17.20;98.00;;;;;;6255858;23;20746;-92
2022/08/25 04:28:04;;;;;;;1.83;1.80;;;17.20;98.00;;;;;;6245139;23;20448;-93
2022/08/25 04:30:31;;;;;;;4.00;2.33;;;17.20;98.00;;;;;;6255882;23;20508;-92
2022/08/25 04:32:58;;;;;;;2.50;2.07;;;17.20;98.00;;;;;;6255854;23;20464;-92
2022/08/25 04:35:25;;;;;;;4.03;2.57;;;17.20;98.00;;;;;;6255887;23;20823;-92
2022/08/25 04:37:52;;;;;;;3.53;1.97;;;17.20;98.00;;;;;;6255733;23;20444;-92
2022/08/25 04:40:20;;;;;;;3.00;2.20;;;17.20;98.00;;;;;;6256389;23;20420;-92
2022/08/25 04:42:47;;;;;;;3.50;2.20;;;17.30;98.00;;;;;;6255521;23;20421;-92
2022/08/25 04:45:15;;;;;;;3.90;2.33;;;17.20;98.00;;;;;;6255766;23;20417;-92
2022/08/25 04:47:43;;;;;;;3.23;2.53;;;17.10;98.00;;;;;;6255280;23;20421;-91
2022/08/25 04:50:10;;;;;;;6.53;2.70;;;17.10;98.00;;;;;;6245585;23;20421;-91
2022/08/25 04:52:37;;;;;;;3.10;2.10;;;17.10;98.00;;;;;;6255537;23;20427;-92
2022/08/25 04:55:05;;;;;;;3.77;2.20;;;17.10;98.00;;;;;;6255742;23;20896;-92
2022/08/25 04:57:32;;;;;;;3.17;2.27;;;17.00;98.00;;;;;;6245951;23;20425;-92
2022/08/25 04:59:59;;;;;;;3.10;2.13;;;17.10;98.00;;;;;;6255665;22;20426;-91
2022/08/25 05:02:27;;;;;;;3.93;2.20;;;17.20;98.00;;;;;;6255377;23;20424;-92
2022/08/25 05:04:55;;;;;;;2.53;1.90;;;17.30;98.00;;;;;;6255650;23;20406;-92
2022/08/25 05:07:22;;;;;;;3.40;2.33;;;17.60;98.00;;;;;;6255603;23;20465;-92
2022/08/25 05:09:49;;;;;;;3.90;2.43;;;17.40;98.00;;;;;;6256181;23;20441;-91
2022/08/25 05:12:16;;;;;;;2.53;2.00;;;17.30;98.00;;;;;;6256568;23;20428;-91
2022/08/25 05:14:43;;;;;;;4.50;2.70;;;17.20;98.00;;;;;;6256639;23;20422;-91
2022/08/25 05:17:11;;;;;;;3.40;2.00;;;17.10;98.00;;;;;;6256693;23;20434;-91
2022/08/25 05:19:39;;;;;;;5.70;2.53;;;17.10;98.00;;;;;;6256731;23;20426;-92
2022/08/25 05:22:06;;;;;;;2.60;2.00;;;17.20;98.00;;;;;;6256819;23;20478;-92
2022/08/25 05:24:33;;;;;;;3.53;2.13;;;17.40;98.00;;;;;;6257872;23;20424;-91
2022/08/25 05:27:02;;;;;;;3.50;2.40;;;17.30;98.00;;;;;;6259036;23;20433;-91
2022/08/25 05:29:29;;;;;;;3.20;2.20;;;17.20;98.00;;;;;;6259001;23;20770;-91
2022/08/25 05:31:59;;;;;;;3.20;2.33;;;17.30;98.00;;;;;;6249279;23;20749;-91
2022/08/25 05:34:27;;;;;;;4.80;2.00;;;17.30;98.00;;;;;;6249097;23;20924;-92
2022/08/25 05:36:58;;;;;;;4.33;2.60;;;17.20;98.00;;;;;;6256450;23;20438;-91
2022/08/25 05:39:25;;;;;;;4.57;2.73;;;17.20;98.00;;;;;;6256709;23;20409;-92
2022/08/25 05:41:53;;;;;;;3.60;2.10;;;17.20;98.00;;;;;;6256483;23;20421;-91
2022/08/25 05:44:20;;;;;;;2.83;2.07;;;17.30;98.00;;;;;;6256283;23;20501;-91
2022/08/25 05:46:47;;;;;;;4.87;2.50;;;17.30;98.00;;;;;;6256343;23;20433;-91
2022/08/25 05:49:14;;;;;;;3.53;2.50;;;17.40;98.00;;;;;;6246342;23;20831;-91
2022/08/25 05:51:41;;;;;;;4.03;2.37;;;17.40;98.00;;;;;;6256190;23;20421;-92
2022/08/25 05:54:09;;;;;;;4.50;2.97;;;17.60;98.00;;;;;;6246605;23;20731;-92
2022/08/25 05:56:37;;;;;;;3.93;2.23;;;17.90;98.00;;;;;;6246422;23;20445;-92
2022/08/25 05:59:04;;;;;;;3.87;2.70;;;18.00;98.00;;;;;;6257015;23;20418;-92
2022/08/25 06:04:17;;;;;;;4.80;2.53;;;18.30;98.00;;;;;;6195242;23;20455;-93
2022/08/25 06:06:44;;;;;;;3.40;2.20;;;18.30;98.00;;;;;;6258205;23;20759;-92
2022/08/25 06:09:12;;;;;;;4.10;2.50;;;18.40;98.00;;;;;;6259189;23;20441;-92
2022/08/25 06:11:41;;;;;;;5.50;2.60;;;18.40;98.00;;;;;;6265503;23;20397;-93
2022/08/25 06:14:10;;;;;;;4.63;2.20;;;18.40;98.00;;;;;;6281018;23;20401;-93
2022/08/25 06:16:38;;;;;;;5.23;2.73;;;18.40;98.00;;;;;;6269218;23;20438;-92
2022/08/25 06:19:06;;;;;;;6.50;3.27;;;18.50;98.00;;;;;;6260118;23;20416;-93
2022/08/25 06:21:33;;;;;;;6.73;3.40;;;18.60;98.00;;;;;;6257135;23;20410;-92
2022/08/25 06:24:00;;;;;;;5.07;3.10;;;18.70;98.00;;;;;;6257022;23;20497;-92
2022/08/25 06:26:29;;;;;;;4.80;3.10;;;18.70;98.00;;;;;;6245730;23;20954;-90
2022/08/25 06:28:56;;;;;;;4.37;3.13;;;18.90;98.00;;;;;;6255989;23;20443;-92
2022/08/25 06:31:24;;;;;;;5.77;2.87;;;19.10;98.00;;;;;;6246081;23;20421;-91
2022/08/25 06:33:51;;;;;;;3.40;2.40;;;19.20;98.00;;;;;;6246108;23;20413;-91
2022/08/25 06:36:19;;;;;;;4.70;2.90;;;19.10;98.00;;;;;;6255598;23;20438;-91
2022/08/25 06:38:46;;;;;;;4.10;2.60;;;19.30;98.00;;;;;;6245926;23;20939;-91
2022/08/25 06:41:15;;;;;;;5.17;3.27;;;19.30;98.00;;;;;;6246096;23;20422;-91
2022/08/25 06:43:44;;;;;;;4.03;2.70;;;19.30;98.00;;;;;;6255636;23;20422;-92
2022/08/25 06:46:12;;;;;;;6.20;3.33;;;19.40;98.00;;;;;;6245919;23;21032;-91
2022/08/25 06:48:40;;;;;;;3.90;2.63;;;19.50;98.00;;;;;;6245358;23;20452;-92
2022/08/25 06:51:12;;;;;;;4.00;2.60;;;19.60;98.00;;;;;;6255926;23;20497;-91
2022/08/25 06:53:39;;;;;;;3.27;2.57;;;19.70;98.00;;;;;;6246179;23;20740;-92
